createdAt,value
2022-08-04T00:00:22.100Z,23.28
2022-08-04T00:01:22.136Z,23.27
2022-08-04T00:02:22.122Z,23.27
2022-08-04T00:03:22.065Z,23.27
2022-08-04T00:04:22.058Z,23.27
2022-08-04T00:05:22.043Z,23.27
2022-08-04T00:06:22.037Z,23.28
2022-08-04T00:07:44.066Z,23.23
2022-08-04T00:08:23.043Z,23.27
2022-08-04T00:09:22.002Z,23.25
2022-08-04T00:10:21.992Z,23.27
2022-08-04T00:11:21.981Z,23.27
2022-08-04T00:12:21.971Z,23.25
2022-08-04T00:13:22.988Z,23.27
2022-08-04T00:14:21.980Z,23.25
2022-08-04T00:15:21.940Z,23.27
2022-08-04T00:16:21.930Z,23.25
2022-08-04T00:17:22.133Z,23.27
2022-08-04T00:18:21.905Z,23.25
2022-08-04T00:19:21.924Z,23.27
2022-08-04T00:20:21.888Z,23.25
2022-08-04T00:21:21.871Z,23.27
2022-08-04T00:22:21.862Z,23.27
2022-08-04T00:23:21.851Z,23.27
2022-08-04T00:24:21.877Z,23.27
2022-08-04T00:25:21.829Z,23.27
2022-08-04T00:26:21.824Z,23.27
2022-08-04T00:27:22.062Z,23.25
2022-08-04T00:28:21.796Z,23.27
2022-08-04T00:29:21.787Z,23.25
2022-08-04T00:30:21.807Z,23.25
2022-08-04T00:31:53.655Z,23.23
2022-08-04T00:32:34.134Z,23.25
2022-08-04T00:33:22.743Z,23.25
2022-08-04T00:34:21.734Z,23.25
2022-08-04T00:35:21.725Z,23.25
2022-08-04T00:36:21.744Z,23.25
2022-08-04T00:37:22.072Z,23.25
2022-08-04T00:38:21.689Z,23.27
2022-08-04T00:39:21.773Z,23.23
2022-08-04T00:40:21.698Z,23.25
2022-08-04T00:41:21.660Z,23.25
2022-08-04T00:42:21.646Z,23.25
2022-08-04T00:43:21.636Z,23.25
2022-08-04T00:44:23.326Z,23.23
2022-08-04T00:45:21.647Z,23.23
2022-08-04T00:46:21.604Z,23.25
2022-08-04T00:47:21.858Z,23.27
2022-08-04T00:48:21.609Z,23.25
2022-08-04T00:49:21.573Z,23.23
2022-08-04T00:50:21.563Z,23.23
2022-08-04T00:51:21.550Z,23.25
2022-08-04T00:52:32.486Z,23.27
2022-08-04T00:53:22.564Z,23.25
2022-08-04T00:54:21.518Z,23.23
2022-08-04T00:55:21.507Z,23.27
2022-08-04T00:56:21.497Z,23.23
2022-08-04T00:57:33.480Z,23.25
2022-08-04T00:58:22.506Z,23.23
2022-08-04T00:59:21.466Z,23.25
2022-08-04T01:00:21.454Z,23.23
2022-08-04T01:01:21.512Z,23.23
2022-08-04T01:02:21.432Z,23.25
2022-08-04T01:03:21.452Z,23.25
2022-08-04T01:04:22.140Z,23.25
2022-08-04T01:05:21.432Z,23.25
2022-08-04T01:06:21.392Z,23.23
2022-08-04T01:07:21.674Z,23.25
2022-08-04T01:08:21.369Z,23.23
2022-08-04T01:09:21.878Z,23.23
2022-08-04T01:10:21.377Z,23.25
2022-08-04T01:11:21.371Z,23.23
2022-08-04T01:12:21.325Z,23.23
2022-08-04T01:13:21.316Z,23.25
2022-08-04T01:14:21.303Z,23.23
2022-08-04T01:15:21.293Z,23.25
2022-08-04T01:16:21.313Z,23.23
2022-08-04T01:17:21.454Z,23.25
2022-08-04T01:18:21.260Z,23.25
2022-08-04T01:19:21.251Z,23.25
2022-08-04T01:20:21.271Z,23.23
2022-08-04T01:21:21.230Z,23.25
2022-08-04T01:22:21.219Z,23.23
2022-08-04T01:23:21.214Z,23.23
2022-08-04T01:24:21.198Z,23.25
2022-08-04T01:25:21.220Z,23.23
2022-08-04T01:26:43.869Z,23.25
2022-08-04T01:27:22.715Z,23.23
2022-08-04T01:28:21.162Z,23.23
2022-08-04T01:29:21.145Z,23.23
2022-08-04T01:30:21.163Z,23.25
2022-08-04T01:31:21.153Z,23.23
2022-08-04T01:32:25.705Z,23.25
2022-08-04T01:33:22.107Z,23.25
2022-08-04T01:34:21.092Z,23.23
2022-08-04T01:35:21.836Z,23.23
2022-08-04T01:36:21.153Z,23.23
2022-08-04T01:37:21.295Z,23.23
2022-08-04T01:38:21.957Z,23.23
2022-08-04T01:39:21.122Z,23.25
2022-08-04T01:40:21.028Z,23.23
2022-08-04T01:41:32.295Z,23.23
2022-08-04T01:42:31.853Z,23.23
2022-08-04T01:43:22.027Z,23.25
2022-08-04T01:44:20.985Z,23.23
2022-08-04T01:45:20.979Z,23.23
2022-08-04T01:46:20.967Z,23.22
2022-08-04T01:47:21.076Z,23.23
2022-08-04T01:48:20.969Z,23.23
2022-08-04T01:49:20.933Z,23.23
2022-08-04T01:50:20.943Z,23.23
2022-08-04T01:51:20.912Z,23.25
2022-08-04T01:52:20.902Z,23.23
2022-08-04T01:53:20.890Z,23.23
2022-08-04T01:54:20.879Z,23.23
2022-08-04T01:55:20.889Z,23.22
2022-08-04T01:56:20.858Z,23.25
2022-08-04T01:57:45.948Z,23.23
2022-08-04T01:58:21.838Z,23.23
2022-08-04T01:59:20.825Z,23.22
2022-08-04T02:00:20.835Z,23.22
2022-08-04T02:01:20.913Z,23.22
2022-08-04T02:02:21.011Z,23.23
2022-08-04T02:03:20.783Z,23.23
2022-08-04T02:04:23.354Z,23.23
2022-08-04T02:05:20.788Z,23.22
2022-08-04T02:06:20.752Z,23.23
2022-08-04T02:07:20.984Z,23.23
2022-08-04T02:08:20.751Z,23.22
2022-08-04T02:09:20.719Z,23.22
2022-08-04T02:10:20.711Z,23.22
2022-08-04T02:11:20.704Z,23.22
2022-08-04T02:12:20.690Z,23.22
2022-08-04T02:13:20.698Z,23.22
2022-08-04T02:14:20.667Z,23.22
2022-08-04T02:15:20.655Z,23.22
2022-08-04T02:16:20.665Z,23.22
2022-08-04T02:17:20.803Z,23.22
2022-08-04T02:18:20.627Z,23.22
2022-08-04T02:19:20.612Z,23.23
2022-08-04T02:20:20.604Z,23.22
2022-08-04T02:21:20.611Z,23.22
2022-08-04T02:22:20.582Z,23.22
2022-08-04T02:23:20.569Z,23.23
2022-08-04T02:24:20.562Z,23.23
2022-08-04T02:25:20.569Z,23.23
2022-08-04T02:26:22.107Z,23.20
2022-08-04T02:27:20.765Z,23.22
2022-08-04T02:28:20.536Z,23.22
2022-08-04T02:29:20.505Z,23.23
2022-08-04T02:30:20.497Z,23.20
2022-08-04T02:31:20.486Z,23.22
2022-08-04T02:32:20.476Z,23.22
2022-08-04T02:33:20.486Z,23.20
2022-08-04T02:34:20.454Z,23.22
2022-08-04T02:35:20.459Z,23.20
2022-08-04T02:36:20.431Z,23.22
2022-08-04T02:37:20.777Z,23.23
2022-08-04T02:38:25.738Z,23.22
2022-08-04T02:39:21.481Z,23.22
2022-08-04T02:40:20.411Z,23.22
2022-08-04T02:41:20.376Z,23.22
2022-08-04T02:42:20.387Z,23.23
2022-08-04T02:43:50.261Z,23.22
2022-08-04T02:44:21.344Z,23.19
2022-08-04T02:45:20.355Z,23.22
2022-08-04T02:46:20.332Z,23.23
2022-08-04T02:47:20.539Z,23.22
2022-08-04T02:48:29.934Z,23.22
2022-08-04T02:49:21.289Z,23.20
2022-08-04T02:50:28.255Z,23.20
2022-08-04T02:51:21.268Z,23.22
2022-08-04T02:52:20.265Z,23.20
2022-08-04T02:53:20.247Z,23.20
2022-08-04T02:54:31.559Z,23.20
2022-08-04T02:55:21.247Z,23.22
2022-08-04T02:56:20.219Z,23.20
2022-08-04T02:57:20.423Z,23.22
2022-08-04T02:58:20.207Z,23.20
2022-08-04T02:59:20.184Z,23.20
2022-08-04T03:00:20.177Z,23.20
2022-08-04T03:01:20.215Z,23.20
2022-08-04T03:02:20.173Z,23.20
2022-08-04T03:03:20.142Z,23.20
2022-08-04T03:04:24.848Z,23.20
2022-08-04T03:05:21.119Z,23.20
2022-08-04T03:06:20.113Z,23.22
2022-08-04T03:07:20.276Z,23.19
2022-08-04T03:08:20.092Z,23.20
2022-08-04T03:09:20.095Z,23.20
2022-08-04T03:10:20.069Z,23.20
2022-08-04T03:11:20.058Z,23.20
2022-08-04T03:12:20.047Z,23.20
2022-08-04T03:13:20.056Z,23.20
2022-08-04T03:14:20.024Z,23.20
2022-08-04T03:15:20.015Z,23.22
2022-08-04T03:16:20.037Z,23.20
2022-08-04T03:17:20.260Z,23.20
2022-08-04T03:18:19.983Z,23.20
2022-08-04T03:19:19.973Z,23.20
2022-08-04T03:20:19.962Z,23.22
2022-08-04T03:21:19.949Z,23.20
2022-08-04T03:22:19.961Z,23.20
2022-08-04T03:23:19.927Z,23.20
2022-08-04T03:24:20.379Z,23.20
2022-08-04T03:25:19.905Z,23.20
2022-08-04T03:26:19.897Z,23.22
2022-08-04T03:27:20.162Z,23.22
2022-08-04T03:28:19.881Z,23.22
2022-08-04T03:29:35.207Z,23.22
2022-08-04T03:30:20.882Z,23.22
2022-08-04T03:31:19.854Z,23.20
2022-08-04T03:32:19.840Z,23.20
2022-08-04T03:33:19.821Z,23.20
2022-08-04T03:34:19.833Z,23.20
2022-08-04T03:35:22.788Z,23.22
2022-08-04T03:36:19.801Z,23.20
2022-08-04T03:37:20.121Z,23.20
2022-08-04T03:38:19.805Z,23.20
2022-08-04T03:39:19.805Z,23.22
2022-08-04T03:40:19.756Z,23.20
2022-08-04T03:41:51.898Z,23.20
2022-08-04T03:42:20.753Z,23.22
2022-08-04T03:43:58.862Z,23.22
2022-08-04T03:44:20.705Z,23.20
2022-08-04T03:45:24.134Z,23.22
2022-08-04T03:46:19.700Z,23.20
2022-08-04T03:47:20.001Z,23.20
2022-08-04T03:48:19.667Z,23.20
2022-08-04T03:49:19.649Z,23.20
2022-08-04T03:50:19.660Z,23.20
2022-08-04T03:51:32.581Z,23.22
2022-08-04T03:52:20.620Z,23.20
2022-08-04T03:53:19.606Z,23.20
2022-08-04T03:54:19.597Z,23.20
2022-08-04T03:55:19.619Z,23.22
2022-08-04T03:56:19.578Z,23.20
2022-08-04T03:57:19.912Z,23.20
2022-08-04T03:58:19.555Z,23.20
2022-08-04T03:59:19.541Z,23.20
2022-08-04T04:00:19.531Z,23.20
2022-08-04T04:01:19.541Z,23.20
2022-08-04T04:02:19.525Z,23.20
2022-08-04T04:03:28.885Z,23.22
2022-08-04T04:04:20.489Z,23.22
2022-08-04T04:05:19.667Z,23.20
2022-08-04T04:06:19.493Z,23.20
2022-08-04T04:07:24.379Z,23.22
2022-08-04T04:08:20.444Z,23.20
2022-08-04T04:09:20.749Z,23.22
2022-08-04T04:10:21.469Z,23.20
2022-08-04T04:11:20.412Z,23.20
2022-08-04T04:12:19.402Z,23.20
2022-08-04T04:13:19.391Z,23.20
2022-08-04T04:14:19.388Z,23.19
2022-08-04T04:15:19.390Z,23.20
2022-08-04T04:16:19.390Z,23.20
2022-08-04T04:17:19.723Z,23.19
2022-08-04T04:18:19.344Z,23.19
2022-08-04T04:19:19.327Z,23.20
2022-08-04T04:20:19.337Z,23.19
2022-08-04T04:21:19.305Z,23.20
2022-08-04T04:22:19.296Z,23.19
2022-08-04T04:23:19.284Z,23.20
2022-08-04T04:24:19.297Z,23.20
2022-08-04T04:25:19.262Z,23.20
2022-08-04T04:26:19.255Z,23.19
2022-08-04T04:27:19.527Z,23.19
2022-08-04T04:28:45.247Z,23.19
2022-08-04T04:29:20.240Z,23.19
2022-08-04T04:30:19.207Z,23.20
2022-08-04T04:31:19.199Z,23.20
2022-08-04T04:32:19.192Z,23.20
2022-08-04T04:33:19.178Z,23.20
2022-08-04T04:34:19.203Z,23.19
2022-08-04T04:35:19.157Z,23.20
2022-08-04T04:36:19.145Z,23.20
2022-08-04T04:37:19.395Z,23.20
2022-08-04T04:38:19.122Z,23.19
2022-08-04T04:39:19.210Z,23.19
2022-08-04T04:40:19.124Z,23.20
2022-08-04T04:41:19.091Z,23.20
2022-08-04T04:42:19.079Z,23.19
2022-08-04T04:43:19.070Z,23.19
2022-08-04T04:44:19.078Z,23.20
2022-08-04T04:45:19.056Z,23.20
2022-08-04T04:46:19.055Z,23.17
2022-08-04T04:47:19.245Z,23.19
2022-08-04T04:48:20.020Z,23.20
2022-08-04T04:49:19.008Z,23.19
2022-08-04T04:50:18.995Z,23.19
2022-08-04T04:51:19.003Z,23.19
2022-08-04T04:52:18.991Z,23.20
2022-08-04T04:53:18.962Z,23.19
2022-08-04T04:54:18.951Z,23.19
2022-08-04T04:55:18.941Z,23.20
2022-08-04T04:56:18.931Z,23.20
2022-08-04T04:57:19.182Z,23.17
2022-08-04T04:58:18.909Z,23.20
2022-08-04T04:59:18.896Z,23.19
2022-08-04T05:00:18.931Z,23.20
2022-08-04T05:01:18.876Z,23.19
2022-08-04T05:02:18.888Z,23.19
2022-08-04T05:03:18.875Z,23.20
2022-08-04T05:04:18.846Z,23.20
2022-08-04T05:05:18.832Z,23.20
2022-08-04T05:06:18.823Z,23.19
2022-08-04T05:07:19.242Z,23.20
2022-08-04T05:08:43.141Z,23.19
2022-08-04T05:09:19.806Z,23.20
2022-08-04T05:10:18.782Z,23.20
2022-08-04T05:11:18.767Z,23.20
2022-08-04T05:13:05.074Z,23.20
2022-08-04T05:14:36.355Z,23.19
2022-08-04T05:14:38.145Z,23.19
2022-08-04T05:15:22.683Z,23.20
2022-08-04T05:16:19.712Z,23.19
2022-08-04T05:17:18.910Z,23.20
2022-08-04T05:18:18.696Z,23.20
2022-08-04T05:19:18.681Z,23.19
2022-08-04T05:20:18.693Z,23.20
2022-08-04T05:21:18.660Z,23.19
2022-08-04T05:22:18.650Z,23.19
2022-08-04T05:23:18.647Z,23.20
2022-08-04T05:24:18.648Z,23.20
2022-08-04T05:25:18.641Z,23.19
2022-08-04T05:26:18.631Z,23.20
2022-08-04T05:27:18.651Z,23.19
2022-08-04T05:28:18.626Z,23.20
2022-08-04T05:29:18.575Z,23.20
2022-08-04T05:30:18.569Z,23.19
2022-08-04T05:31:18.552Z,23.20
2022-08-04T05:32:18.544Z,23.19
2022-08-04T05:33:18.531Z,23.20
2022-08-04T05:34:18.541Z,23.20
2022-08-04T05:35:52.911Z,23.20
2022-08-04T05:36:39.577Z,23.20
2022-08-04T05:37:19.643Z,23.20
2022-08-04T05:38:18.500Z,23.20
2022-08-04T05:39:18.507Z,23.22
2022-08-04T05:40:18.459Z,23.20
2022-08-04T05:41:18.448Z,23.22
2022-08-04T05:42:18.435Z,23.22
2022-08-04T05:43:18.445Z,23.20
2022-08-04T05:44:18.413Z,23.20
2022-08-04T05:45:18.402Z,23.20
2022-08-04T05:46:18.394Z,23.20
2022-08-04T05:47:18.381Z,23.22
2022-08-04T05:48:18.405Z,23.22
2022-08-04T05:49:19.512Z,23.22
2022-08-04T05:50:18.353Z,23.22
2022-08-04T05:51:18.338Z,23.22
2022-08-04T05:52:18.330Z,23.20
2022-08-04T05:53:18.316Z,23.20
2022-08-04T05:54:18.331Z,23.22
2022-08-04T05:55:58.144Z,23.23
2022-08-04T05:56:19.284Z,23.22
2022-08-04T05:57:18.274Z,23.20
2022-08-04T05:58:18.264Z,23.22
2022-08-04T05:59:18.253Z,23.22
2022-08-04T06:00:38.940Z,23.22
2022-08-04T06:01:19.293Z,23.23
2022-08-04T06:02:18.335Z,23.23
2022-08-04T06:03:18.211Z,23.23
2022-08-04T06:04:18.201Z,23.23
2022-08-04T06:05:18.193Z,23.22
2022-08-04T06:06:18.201Z,23.23
2022-08-04T06:07:18.169Z,23.22
2022-08-04T06:08:18.156Z,23.25
2022-08-04T06:09:18.146Z,23.22
2022-08-04T06:10:18.159Z,23.22
2022-08-04T06:11:18.123Z,23.22
2022-08-04T06:12:18.113Z,23.25
2022-08-04T06:13:49.608Z,23.23
2022-08-04T06:14:19.093Z,23.25
2022-08-04T06:15:18.101Z,23.25
2022-08-04T06:16:29.948Z,23.25
2022-08-04T06:18:35.495Z,23.23
2022-08-04T06:20:01.314Z,23.25
2022-08-04T06:20:03.109Z,23.27
2022-08-04T06:20:23.163Z,23.25
2022-08-04T06:21:18.037Z,23.25
2022-08-04T06:22:18.006Z,23.25
2022-08-04T06:23:17.996Z,23.23
2022-08-04T06:24:17.988Z,23.23
2022-08-04T06:25:18.003Z,23.25
2022-08-04T06:26:17.968Z,23.23
2022-08-04T06:27:17.969Z,23.25
2022-08-04T06:28:17.941Z,23.23
2022-08-04T06:29:17.929Z,23.25
2022-08-04T06:30:17.921Z,23.25
2022-08-04T06:32:27.436Z,23.25
2022-08-04T06:32:30.487Z,23.25
2022-08-04T06:33:18.888Z,23.23
2022-08-04T06:34:17.940Z,23.25
2022-08-04T06:35:17.889Z,23.27
2022-08-04T06:36:17.857Z,23.27
2022-08-04T06:37:24.077Z,23.25
2022-08-04T06:38:21.221Z,23.27
2022-08-04T06:39:17.869Z,23.25
2022-08-04T06:40:32.059Z,23.28
2022-08-04T06:41:18.800Z,23.28
2022-08-04T06:42:22.655Z,23.28
2022-08-04T06:43:18.779Z,23.28
2022-08-04T06:44:17.773Z,23.28
2022-08-04T06:45:17.780Z,23.31
2022-08-04T06:46:17.751Z,23.31
2022-08-04T06:47:17.737Z,23.31
2022-08-04T06:48:17.753Z,23.31
2022-08-04T06:49:17.719Z,23.33
2022-08-04T06:51:27.332Z,23.35
2022-08-04T06:51:30.807Z,23.32
2022-08-04T06:52:18.685Z,23.33
2022-08-04T06:53:17.675Z,23.35
2022-08-04T06:54:17.664Z,23.35
2022-08-04T06:55:17.651Z,23.36
2022-08-04T06:56:17.678Z,23.36
2022-08-04T06:57:17.634Z,23.38
2022-08-04T06:58:17.622Z,23.39
2022-08-04T06:59:17.611Z,23.40
2022-08-04T07:00:17.598Z,23.40
2022-08-04T07:01:17.682Z,23.43
2022-08-04T07:02:17.613Z,23.42
2022-08-04T07:03:17.567Z,23.43
2022-08-04T07:04:17.561Z,23.46
2022-08-04T07:05:17.546Z,23.47
2022-08-04T07:06:17.536Z,23.48
2022-08-04T07:07:17.523Z,23.48
2022-08-04T07:08:17.535Z,23.48
2022-08-04T07:09:17.501Z,23.50
2022-08-04T07:10:17.985Z,23.53
2022-08-04T07:11:17.481Z,23.53
2022-08-04T07:12:17.492Z,23.54
2022-08-04T07:13:17.459Z,23.55
2022-08-04T07:14:17.450Z,23.55
2022-08-04T07:15:17.438Z,23.55
2022-08-04T07:16:17.453Z,23.55
2022-08-04T07:17:17.416Z,23.57
2022-08-04T07:18:17.424Z,23.57
2022-08-04T07:19:19.009Z,23.60
2022-08-04T07:20:34.576Z,23.61
2022-08-04T07:21:18.392Z,23.61
2022-08-04T07:22:25.304Z,23.63
2022-08-04T07:23:18.355Z,23.63
2022-08-04T07:24:17.345Z,23.65
2022-08-04T07:25:17.330Z,23.65
2022-08-04T07:26:17.347Z,23.65
2022-08-04T07:27:17.308Z,23.66
2022-08-04T07:28:18.333Z,23.66
2022-08-04T07:29:17.287Z,23.68
2022-08-04T07:30:19.711Z,23.69
2022-08-04T07:31:33.528Z,23.70
2022-08-04T07:32:18.259Z,23.69
2022-08-04T07:33:17.244Z,23.70
2022-08-04T07:34:22.143Z,23.73
2022-08-04T07:36:04.011Z,23.75
2022-08-04T07:36:18.216Z,23.75
2022-08-04T07:37:17.206Z,23.75
2022-08-04T07:38:17.193Z,23.75
2022-08-04T07:39:27.513Z,23.76
2022-08-04T07:40:18.185Z,23.78
2022-08-04T07:42:18.182Z,23.79
2022-08-04T07:43:17.169Z,23.80
2022-08-04T07:44:17.150Z,23.80
2022-08-04T07:45:17.135Z,23.80
2022-08-04T07:46:17.109Z,23.83
2022-08-04T07:47:17.499Z,23.84
2022-08-04T07:48:17.088Z,23.84
2022-08-04T07:49:55.649Z,23.85
2022-08-04T07:50:18.083Z,23.85
2022-08-04T07:51:17.053Z,23.88
2022-08-04T07:52:17.046Z,23.87
2022-08-04T07:53:54.065Z,23.87
2022-08-04T07:54:18.023Z,23.88
2022-08-04T07:55:17.033Z,23.88
2022-08-04T07:56:17.000Z,23.87
2022-08-04T07:57:19.422Z,23.90
2022-08-04T07:58:17.999Z,23.88
2022-08-04T07:59:16.967Z,23.90
2022-08-04T08:00:16.960Z,23.88
2022-08-04T08:01:16.945Z,23.91
2022-08-04T08:02:16.935Z,23.90
2022-08-04T08:03:17.016Z,23.90
2022-08-04T08:04:16.915Z,23.93
2022-08-04T08:05:16.978Z,23.91
2022-08-04T08:06:32.378Z,23.91
2022-08-04T08:07:17.907Z,23.93
2022-08-04T08:08:16.871Z,23.93
2022-08-04T08:09:16.862Z,23.94
2022-08-04T08:10:16.853Z,23.94
2022-08-04T08:11:16.859Z,23.97
2022-08-04T08:12:38.662Z,23.95
2022-08-04T08:13:17.822Z,23.97
2022-08-04T08:14:16.811Z,23.98
2022-08-04T08:15:16.796Z,23.97
2022-08-04T08:16:16.810Z,23.98
2022-08-04T08:17:16.797Z,24.00
2022-08-04T08:18:16.789Z,24.00
2022-08-04T08:19:16.755Z,24.00
2022-08-04T08:20:28.848Z,24.02
2022-08-04T08:21:17.731Z,24.03
2022-08-04T08:22:16.746Z,24.05
2022-08-04T08:23:16.715Z,24.05
2022-08-04T08:24:16.709Z,24.06
2022-08-04T08:25:16.695Z,24.05
2022-08-04T08:26:16.684Z,24.08
2022-08-04T08:27:16.693Z,24.08
2022-08-04T08:28:16.694Z,24.08
2022-08-04T08:29:16.649Z,24.10
2022-08-04T08:30:16.651Z,24.10
2022-08-04T08:31:16.629Z,24.12
2022-08-04T08:32:16.641Z,24.10
2022-08-04T08:33:16.608Z,24.12
2022-08-04T08:34:27.516Z,24.15
2022-08-04T08:35:17.607Z,24.15
2022-08-04T08:36:16.581Z,24.16
2022-08-04T08:37:16.595Z,24.18
2022-08-04T08:38:16.559Z,24.18
2022-08-04T08:39:17.992Z,24.22
2022-08-04T08:40:16.556Z,24.21
2022-08-04T08:41:16.548Z,24.22
2022-08-04T08:42:16.521Z,24.20
2022-08-04T08:44:03.915Z,24.20
2022-08-04T08:44:19.264Z,24.18
2022-08-04T08:45:18.084Z,24.16
2022-08-04T08:46:28.469Z,24.15
2022-08-04T08:47:17.485Z,24.13
2022-08-04T08:48:16.454Z,24.10
2022-08-04T08:50:00.283Z,24.09
2022-08-04T08:50:17.431Z,24.06
2022-08-04T08:51:16.418Z,24.05
2022-08-04T08:52:16.459Z,24.03
2022-08-04T08:53:17.397Z,24.02
2022-08-04T08:54:16.388Z,23.98
2022-08-04T08:55:16.378Z,23.97
2022-08-04T08:56:16.372Z,23.95
2022-08-04T08:57:16.357Z,23.93
2022-08-04T08:58:16.382Z,23.93
2022-08-04T08:59:16.335Z,23.90
2022-08-04T09:00:16.328Z,23.90
2022-08-04T09:01:16.376Z,23.88
2022-08-04T09:02:16.308Z,23.88
2022-08-04T09:03:16.295Z,23.87
2022-08-04T09:04:23.569Z,23.85
2022-08-04T09:05:17.272Z,23.83
2022-08-04T09:06:16.262Z,23.84
2022-08-04T09:07:16.271Z,23.80
2022-08-04T09:08:16.242Z,23.80
2022-08-04T09:09:16.250Z,23.80
2022-08-04T09:10:16.222Z,23.78
2022-08-04T09:11:16.213Z,23.78
2022-08-04T09:12:16.202Z,23.78
2022-08-04T09:13:16.194Z,23.78
2022-08-04T09:14:16.198Z,23.76
2022-08-04T09:15:16.178Z,23.78
2022-08-04T09:16:16.177Z,23.76
2022-08-04T09:17:16.150Z,23.75
2022-08-04T09:18:16.137Z,23.76
2022-08-04T09:19:17.677Z,23.76
2022-08-04T09:20:17.115Z,23.75
2022-08-04T09:21:16.125Z,23.75
2022-08-04T09:22:16.095Z,23.75
2022-08-04T09:23:16.084Z,23.75
2022-08-04T09:24:36.758Z,23.75
2022-08-04T09:25:17.065Z,23.73
2022-08-04T09:26:16.073Z,23.73
2022-08-04T09:27:16.044Z,23.73
2022-08-04T09:28:31.620Z,23.73
2022-08-04T09:29:17.020Z,23.72
2022-08-04T09:30:16.012Z,23.73
2022-08-04T09:31:16.023Z,23.73
2022-08-04T09:32:15.989Z,23.72
2022-08-04T09:33:16.303Z,23.72
2022-08-04T09:34:15.967Z,23.70
2022-08-04T09:35:16.312Z,23.70
2022-08-04T09:36:15.983Z,23.70
2022-08-04T09:37:16.937Z,23.70
2022-08-04T09:38:15.928Z,23.69
2022-08-04T09:39:15.965Z,23.69
2022-08-04T09:40:31.571Z,23.70
2022-08-04T09:41:20.939Z,23.70
2022-08-04T09:42:16.882Z,23.70
2022-08-04T09:43:15.875Z,23.70
2022-08-04T09:44:49.311Z,23.69
2022-08-04T09:45:21.272Z,23.70
2022-08-04T09:46:16.840Z,23.70
2022-08-04T09:47:15.854Z,23.70
2022-08-04T09:48:15.819Z,23.72
2022-08-04T09:49:15.812Z,23.72
2022-08-04T09:50:15.921Z,23.70
2022-08-04T09:51:15.793Z,23.72
2022-08-04T09:52:15.779Z,23.73
2022-08-04T09:53:15.776Z,23.72
2022-08-04T09:54:30.263Z,23.72
2022-08-04T09:55:16.768Z,23.72
2022-08-04T09:56:15.735Z,23.73
2022-08-04T09:57:15.746Z,23.73
2022-08-04T09:58:15.719Z,23.73
2022-08-04T09:59:15.706Z,23.73
2022-08-04T10:00:15.719Z,23.73
2022-08-04T10:01:18.665Z,23.73
2022-08-04T10:02:16.693Z,23.76
2022-08-04T10:03:19.857Z,23.83
2022-08-04T10:04:15.651Z,23.91
2022-08-04T10:05:15.644Z,23.97
2022-08-04T10:06:15.633Z,24.06
2022-08-04T10:07:15.640Z,24.10
2022-08-04T10:08:17.223Z,24.18
2022-08-04T10:09:15.622Z,24.25
2022-08-04T10:10:15.589Z,24.31
2022-08-04T10:11:15.582Z,24.40
2022-08-04T10:12:15.589Z,24.50
2022-08-04T10:13:15.557Z,24.60
2022-08-04T10:14:18.142Z,24.65
2022-08-04T10:15:15.539Z,24.68
2022-08-04T10:16:15.527Z,24.73
2022-08-04T10:17:15.540Z,24.76
2022-08-04T10:18:15.507Z,24.78
2022-08-04T10:19:15.498Z,24.78
2022-08-04T10:20:15.504Z,24.81
2022-08-04T10:21:16.488Z,24.80
2022-08-04T10:22:29.606Z,24.81
2022-08-04T10:23:16.454Z,24.84
2022-08-04T10:24:15.461Z,24.87
2022-08-04T10:26:02.802Z,24.90
2022-08-04T10:26:16.449Z,24.93
2022-08-04T10:27:15.413Z,24.96
2022-08-04T10:28:15.421Z,24.96
2022-08-04T10:29:15.398Z,24.99
2022-08-04T10:30:15.387Z,25.00
2022-08-04T10:31:15.372Z,25.02
2022-08-04T10:32:15.381Z,24.99
2022-08-04T10:33:15.351Z,24.99
2022-08-04T10:34:15.358Z,24.99
2022-08-04T10:35:15.347Z,24.98
2022-08-04T10:36:15.322Z,24.96
2022-08-04T10:37:15.310Z,24.95
2022-08-04T10:38:15.320Z,24.93
2022-08-04T10:39:42.019Z,24.93
2022-08-04T10:40:16.296Z,24.93
2022-08-04T10:41:15.286Z,24.96
2022-08-04T10:42:15.261Z,24.98
2022-08-04T10:43:20.994Z,25.02
2022-08-04T10:44:16.236Z,25.03
2022-08-04T10:45:15.225Z,25.06
2022-08-04T10:46:15.244Z,25.08
2022-08-04T10:47:15.205Z,25.08
2022-08-04T10:48:15.197Z,25.09
2022-08-04T10:49:15.190Z,25.08
2022-08-04T10:50:15.177Z,25.09
2022-08-04T10:51:15.183Z,25.09
2022-08-04T10:52:15.175Z,25.10
2022-08-04T10:53:15.141Z,25.14
2022-08-04T10:54:15.132Z,25.14
2022-08-04T10:55:15.125Z,25.18
2022-08-04T10:56:15.115Z,25.18
2022-08-04T10:57:19.076Z,25.21
2022-08-04T10:58:16.093Z,25.21
2022-08-04T10:59:15.079Z,25.24
2022-08-04T11:00:15.074Z,25.24
2022-08-04T11:02:01.476Z,25.25
2022-08-04T11:02:16.723Z,25.30
2022-08-04T11:03:15.131Z,25.32
2022-08-04T11:04:15.047Z,25.33
2022-08-04T11:05:16.018Z,25.33
2022-08-04T11:06:15.008Z,25.35
2022-08-04T11:07:15.104Z,25.35
2022-08-04T11:08:20.243Z,25.39
2022-08-04T11:09:15.973Z,25.42
2022-08-04T11:10:14.967Z,25.46
2022-08-04T11:11:14.957Z,25.51
2022-08-04T11:12:14.949Z,25.54
2022-08-04T11:13:29.298Z,25.58
2022-08-04T11:14:15.921Z,25.58
2022-08-04T11:15:14.929Z,25.60
2022-08-04T11:16:14.955Z,25.61
2022-08-04T11:17:14.890Z,25.60
2022-08-04T11:18:16.698Z,25.57
2022-08-04T11:19:14.870Z,25.54
2022-08-04T11:20:36.807Z,25.51
2022-08-04T11:21:15.869Z,25.50
2022-08-04T11:22:14.840Z,25.47
2022-08-04T11:23:14.829Z,25.47
2022-08-04T11:24:14.815Z,25.46
2022-08-04T11:25:14.803Z,25.45
2022-08-04T11:26:14.816Z,25.43
2022-08-04T11:27:14.781Z,25.45
2022-08-04T11:28:14.793Z,25.45
2022-08-04T11:29:14.780Z,25.45
2022-08-04T11:30:14.756Z,25.46
2022-08-04T11:31:14.739Z,25.46
2022-08-04T11:32:14.728Z,25.47
2022-08-04T11:33:14.718Z,25.47
2022-08-04T11:34:14.727Z,25.50
2022-08-04T11:35:14.697Z,25.50
2022-08-04T11:36:14.691Z,25.50
2022-08-04T11:37:14.902Z,25.47
2022-08-04T11:38:14.666Z,25.47
2022-08-04T11:39:14.747Z,25.45
2022-08-04T11:40:14.646Z,25.42
2022-08-04T11:41:14.631Z,25.39
2022-08-04T11:42:14.623Z,25.33
2022-08-04T11:43:14.611Z,25.30
2022-08-04T11:44:15.637Z,25.25
2022-08-04T11:45:14.588Z,25.23
2022-08-04T11:46:14.579Z,25.15
2022-08-04T11:47:14.567Z,25.14
2022-08-04T11:48:14.558Z,25.09
2022-08-04T11:49:14.547Z,25.05
2022-08-04T11:50:14.562Z,25.02
2022-08-04T11:51:14.529Z,24.98
2022-08-04T11:52:14.517Z,24.96
2022-08-04T11:53:14.502Z,24.93
2022-08-04T11:54:14.501Z,24.90
2022-08-04T11:55:14.502Z,24.85
2022-08-04T11:56:35.735Z,24.83
2022-08-04T11:57:15.460Z,24.81
2022-08-04T11:58:14.453Z,24.81
2022-08-04T11:59:14.438Z,24.78
2022-08-04T12:00:14.453Z,24.78
2022-08-04T12:01:14.417Z,24.78
2022-08-04T12:02:19.117Z,24.78
2022-08-04T12:03:15.395Z,24.76
2022-08-04T12:04:14.385Z,24.77
2022-08-04T12:05:32.342Z,24.73
2022-08-04T12:06:15.363Z,24.71
2022-08-04T12:07:30.424Z,24.68
2022-08-04T12:08:15.343Z,24.68
2022-08-04T12:09:14.333Z,24.65
2022-08-04T12:10:14.322Z,24.65
2022-08-04T12:11:14.312Z,24.62
2022-08-04T12:12:14.349Z,24.61
2022-08-04T12:13:14.288Z,24.61
2022-08-04T12:14:14.281Z,24.60
2022-08-04T12:15:15.411Z,24.61
2022-08-04T12:16:14.256Z,24.60
2022-08-04T12:17:14.289Z,24.58
2022-08-04T12:18:14.259Z,24.55
2022-08-04T12:19:15.551Z,24.58
2022-08-04T12:20:31.818Z,24.57
2022-08-04T12:21:15.200Z,24.55
2022-08-04T12:22:14.194Z,24.55
2022-08-04T12:23:14.180Z,24.53
2022-08-04T12:24:14.177Z,24.52
2022-08-04T12:25:14.180Z,24.52
2022-08-04T12:26:14.149Z,24.52
2022-08-04T12:27:14.226Z,24.52
2022-08-04T12:28:14.128Z,24.52
2022-08-04T12:29:14.116Z,24.52
2022-08-04T12:31:00.484Z,24.50
2022-08-04T12:31:15.093Z,24.49
2022-08-04T12:32:14.090Z,24.50
2022-08-04T12:33:17.896Z,24.49
2022-08-04T12:34:14.065Z,24.47
2022-08-04T12:35:14.050Z,24.47
2022-08-04T12:36:16.804Z,24.46
2022-08-04T12:37:15.028Z,24.45
2022-08-04T12:38:15.037Z,24.46
2022-08-04T12:39:14.087Z,24.45
2022-08-04T12:40:27.417Z,24.45
2022-08-04T12:41:14.986Z,24.45
2022-08-04T12:42:18.256Z,24.43
2022-08-04T12:43:14.985Z,24.42
2022-08-04T12:44:36.973Z,24.42
2022-08-04T12:45:14.942Z,24.40
2022-08-04T12:46:13.935Z,24.40
2022-08-04T12:47:26.743Z,24.40
2022-08-04T12:48:17.907Z,24.37
2022-08-04T12:49:14.900Z,24.37
2022-08-04T12:50:13.909Z,24.39
2022-08-04T12:52:06.708Z,24.40
2022-08-04T12:52:14.869Z,24.43
2022-08-04T12:53:19.261Z,24.46